KEWR/EWR METAR and TAF weather

Enter ICAO airport designator
Station Type Date Time Source
KEWR METAR 2019/09/20 19:51 UTC NOAA

KEWR 201951Z 26007KT 10SM BKN250 26/08 A3016 RMK AO2 SLP213 T02610078


Station Type Date Time Source
KEWR Decoded METAR 2019/09/20 19:51 UTC NOAA

NEWARK INTERNATIONAL AIRPORT, NJ, United States (KEWR) 40-41N 74-10W 7M
Sep 20, 2019 - 03:51 PM EDT / 2019.09.20 1951 UTC
Wind: from the W (260 degrees) at 8 MPH (7 KT):0
Visibility: 10 mile(s):0
Sky conditions: mostly cloudy
Temperature: 79.0 F (26.1 C)
Dew Point: 46.0 F (7.8 C)
Relative Humidity: 31%
Pressure (altimeter): 30.16 in. Hg (1021 hPa)
ob: KEWR 201951Z 26007KT 10SM BKN250 26/08 A3016 RMK AO2 SLP213 T02610078
cycle: 20

Station Type Date Time Source
KEWR TAF 2019/09/20 19:58 UTC NOAA

TAF
AMD KEWR 201858Z 2019/2124 26008KT P6SM BKN250
FM202300 25008KT P6SM SCT250
FM210100 27007KT P6SM FEW250
FM210900 30005KT P6SM FEW250
FM211700 26005KT P6SM FEW250

Example: see airport list